Time;durP1;ratioP1;P1;durP2;ratioP2;P2;SDS_P1;SDS_P2;PMS_P1;PMS_P2;Temp;Humidity;BMP_temperature;BMP_pressure;BME280_temperature;BME280_humidity;BME280_pressure;Samples;Min_cycle;Max_cycle;Signal;HPM_P1;HPM_P2
2023/08/17 00:02:16;;;;;;;10.40;1.70;;;;;;;20.30;88.68;100570.39;110158;1271;22287;-59
2023/08/17 00:04:47;;;;;;;4.70;1.50;;;;;;;20.29;89.01;100579.17;110104;1270;22147;-58
2023/08/17 00:07:18;;;;;;;5.20;1.40;;;;;;;20.26;89.15;100574.47;110085;1271;22205;-59
2023/08/17 00:09:49;;;;;;;6.40;1.30;;;;;;;20.21;89.51;100570.52;110074;1278;22310;-58
2023/08/17 00:12:20;;;;;;;7.20;1.40;;;;;;;20.16;89.79;100575.66;110094;1279;22282;-59
2023/08/17 00:14:51;;;;;;;7.00;1.40;;;;;;;20.12;90.13;100577.48;110127;1278;22390;-59
2023/08/17 00:17:23;;;;;;;8.80;1.60;;;;;;;20.09;90.41;100580.82;110104;1278;22288;-61
2023/08/17 00:19:54;;;;;;;9.60;1.50;;;;;;;20.08;90.78;100590.32;110104;1278;22211;-61
2023/08/17 00:22:25;;;;;;;4.10;1.20;;;;;;;20.07;91.25;100598.38;110092;1278;22281;-59
2023/08/17 00:24:56;;;;;;;7.30;1.50;;;;;;;20.04;91.47;100597.42;110102;1271;23036;-59
2023/08/17 00:27:27;;;;;;;6.00;1.70;;;;;;;20.03;91.80;100594.91;110172;1267;22177;-59
2023/08/17 00:29:58;;;;;;;8.20;2.20;;;;;;;20.03;92.00;100599.92;110107;1271;22175;-59
2023/08/17 00:32:29;;;;;;;16.20;2.20;;;;;;;20.03;92.41;100611.10;106379;1278;23914;-57
2023/08/17 00:35:00;;;;;;;8.40;1.70;;;;;;;20.01;92.67;100623.45;110011;1270;22218;-58
2023/08/17 00:37:31;;;;;;;7.70;1.80;;;;;;;20.02;92.65;100643.52;110090;1278;22836;-59
2023/08/17 00:40:04;;;;;;;8.70;1.60;;;;;;;20.06;92.40;100697.83;110081;1278;22259;-59
2023/08/17 00:42:35;;;;;;;6.70;1.50;;;;;;;20.12;92.72;100724.41;110100;1270;22281;-57
2023/08/17 00:45:07;;;;;;;6.50;1.20;;;;;;;20.09;90.98;100726.92;110139;1267;22271;-59
2023/08/17 00:47:38;;;;;;;5.60;1.30;;;;;;;20.08;90.65;100730.90;110068;1273;22207;-59
2023/08/17 00:50:11;;;;;;;4.30;1.40;;;;;;;20.11;90.53;100730.35;110113;1278;23520;-59
2023/08/17 00:52:43;;;;;;;5.10;1.50;;;;;;;20.15;91.09;100740.77;110143;1271;22166;-59
2023/08/17 00:55:14;;;;;;;5.50;1.10;;;;;;;20.27;91.54;100757.09;110069;1278;22820;-59
2023/08/17 00:57:46;;;;;;;7.10;1.40;;;;;;;20.33;90.06;100757.21;110161;1271;22174;-59
2023/08/17 01:00:17;;;;;;;8.30;1.20;;;;;;;20.37;89.57;100762.34;110180;1277;22189;-59
2023/08/17 01:02:49;;;;;;;3.90;1.20;;;;;;;20.37;89.19;100743.61;110152;1274;23164;-59
2023/08/17 01:05:20;;;;;;;4.10;1.00;;;;;;;20.38;88.77;100744.23;110102;1278;22190;-58
2023/08/17 01:07:51;;;;;;;6.00;1.00;;;;;;;20.39;88.32;100742.86;110102;1278;22311;-59
2023/08/17 01:10:23;;;;;;;7.00;1.10;;;;;;;20.42;88.42;100735.35;110096;1270;22224;-58
2023/08/17 01:13:06;;;;;;;9.20;1.70;;;;;;;20.42;88.82;100720.02;110054;1271;23229;-58
2023/08/17 01:15:40;;;;;;;5.80;1.40;;;;;;;20.40;89.09;100699.17;110081;1274;22187;-59
2023/08/17 01:18:21;;;;;;;5.50;1.20;;;;;;;20.38;88.81;100664.27;110072;1276;22159;-59
2023/08/17 01:20:53;;;;;;;7.30;1.40;;;;;;;20.33;89.23;100628.85;110125;1277;22228;-59
2023/08/17 01:23:24;;;;;;;8.10;1.80;;;;;;;20.22;89.23;100629.88;110151;1277;22282;-58
2023/08/17 01:25:57;;;;;;;8.80;1.80;;;;;;;20.14;89.61;100640.89;110103;1278;22143;-59
2023/08/17 01:28:28;;;;;;;6.20;1.60;;;;;;;20.06;90.08;100639.66;110153;1277;22154;-58
2023/08/17 01:31:04;;;;;;;8.70;1.50;;;;;;;19.98;90.65;100633.48;110185;1270;22330;-58
2023/08/17 01:33:41;;;;;;;6.70;1.70;;;;;;;19.91;90.32;100619.41;110143;1277;22170;-58
2023/08/17 01:36:19;;;;;;;6.50;1.20;;;;;;;19.85;90.38;100617.95;110182;1277;22278;-56
2023/08/17 01:38:52;;;;;;;7.20;1.70;;;;;;;19.76;90.53;100618.56;110199;1270;22154;-58
2023/08/17 01:41:24;;;;;;;7.10;1.30;;;;;;;19.69;90.85;100613.30;110200;1277;22153;-59
2023/08/17 01:43:55;;;;;;;6.60;1.60;;;;;;;19.64;90.92;100601.70;110106;1271;22352;-57
2023/08/17 01:46:30;;;;;;;8.50;1.70;;;;;;;19.62;91.07;100598.45;110131;1271;22275;-56
2023/08/17 01:49:01;;;;;;;8.30;1.60;;;;;;;19.59;91.43;100598.59;110181;1270;22981;-59
2023/08/17 01:51:32;;;;;;;5.20;1.50;;;;;;;19.57;91.76;100602.11;110178;1274;22176;-58
2023/08/17 01:54:04;;;;;;;8.00;1.70;;;;;;;19.52;92.22;100603.63;110170;1277;22225;-58
2023/08/17 01:56:35;;;;;;;5.70;1.50;;;;;;;19.48;92.37;100610.34;110177;1271;22202;-58
2023/08/17 01:59:06;;;;;;;10.50;2.30;;;;;;;19.48;92.34;100608.66;110143;1270;22244;-58
2023/08/17 02:01:37;;;;;;;5.80;1.50;;;;;;;19.48;92.37;100608.19;110110;1276;22254;-57
2023/08/17 02:04:08;;;;;;;6.00;1.40;;;;;;;19.48;92.47;100603.52;110089;1278;22940;-59
2023/08/17 02:06:39;;;;;;;4.20;1.20;;;;;;;19.46;92.58;100606.36;110088;1278;22176;-59
2023/08/17 02:09:10;;;;;;;5.70;1.40;;;;;;;19.44;92.73;100604.16;110086;1278;22208;-57
2023/08/17 02:11:42;;;;;;;6.20;1.40;;;;;;;19.42;92.76;100601.83;110117;1279;22953;-58
2023/08/17 02:14:12;;;;;;;5.30;1.20;;;;;;;19.38;92.92;100597.90;110113;1278;22184;-58
2023/08/17 02:16:43;;;;;;;5.80;1.20;;;;;;;19.33;92.72;100593.58;110100;1278;22374;-59
2023/08/17 02:19:14;;;;;;;6.80;1.40;;;;;;;19.32;92.78;100589.30;110085;1271;22278;-58
2023/08/17 02:21:46;;;;;;;7.40;1.70;;;;;;;19.31;92.86;100583.80;110074;1271;22254;-58
2023/08/17 02:24:16;;;;;;;6.00;1.30;;;;;;;19.31;92.99;100581.84;110060;1271;22284;-58
2023/08/17 02:26:47;;;;;;;6.60;1.50;;;;;;;19.31;92.96;100580.91;110064;1274;22169;-58
2023/08/17 02:29:18;;;;;;;4.90;1.20;;;;;;;19.32;92.77;100583.69;110103;1276;22223;-58
2023/08/17 02:31:49;;;;;;;5.50;1.30;;;;;;;19.32;92.88;100578.74;110083;1273;22977;-59
2023/08/17 02:34:20;;;;;;;5.50;1.10;;;;;;;19.31;92.78;100577.61;110086;1279;22239;-58
2023/08/17 02:36:51;;;;;;;5.80;1.40;;;;;;;19.28;92.77;100578.27;110116;1262;22328;-59
2023/08/17 02:39:22;;;;;;;6.40;1.50;;;;;;;19.25;92.73;100571.71;110109;1278;22201;-59
2023/08/17 02:41:53;;;;;;;5.50;1.10;;;;;;;19.25;92.61;100566.27;110103;1271;22351;-59
2023/08/17 02:44:24;;;;;;;6.70;1.50;;;;;;;19.23;92.59;100566.08;110155;1277;22201;-59
2023/08/17 02:46:55;;;;;;;4.80;1.30;;;;;;;19.22;92.86;100566.35;110179;1277;22423;-58
2023/08/17 02:49:26;;;;;;;6.40;1.40;;;;;;;19.21;92.77;100560.39;110110;1277;22234;-59
2023/08/17 02:51:57;;;;;;;5.60;1.10;;;;;;;19.21;92.83;100560.59;110137;1277;22333;-59
2023/08/17 02:54:28;;;;;;;8.40;1.30;;;;;;;19.23;92.89;100568.20;110170;1277;22237;-59
2023/08/17 02:57:00;;;;;;;3.50;1.10;;;;;;;19.24;92.91;100567.61;110154;1277;22331;-59
2023/08/17 02:59:30;;;;;;;6.00;1.50;;;;;;;19.23;93.03;100567.89;110159;1274;23297;-59
2023/08/17 03:02:01;;;;;;;6.20;1.30;;;;;;;19.23;92.96;100566.53;110183;1277;22948;-59
2023/08/17 03:04:33;;;;;;;7.90;1.60;;;;;;;19.26;93.16;100565.48;110144;1278;23050;-59
2023/08/17 03:07:04;;;;;;;5.20;1.50;;;;;;;19.28;92.89;100567.30;110137;1277;22348;-59
2023/08/17 03:09:35;;;;;;;5.20;1.60;;;;;;;19.31;92.81;100570.27;110156;1277;22124;-59
2023/08/17 03:12:07;;;;;;;6.50;1.60;;;;;;;19.33;92.87;100567.63;110174;1271;22160;-57
2023/08/17 03:14:38;;;;;;;4.50;1.60;;;;;;;19.33;92.99;100564.59;110174;1278;22951;-59
2023/08/17 03:17:09;;;;;;;5.20;1.20;;;;;;;19.33;93.56;100562.34;110173;1274;22331;-58
2023/08/17 03:19:40;;;;;;;7.10;1.40;;;;;;;19.31;93.30;100556.67;110169;1274;23201;-58
2023/08/17 03:22:11;;;;;;;6.20;1.50;;;;;;;19.30;93.61;100559.51;110138;1277;22226;-58
2023/08/17 03:24:42;;;;;;;5.60;1.60;;;;;;;19.29;93.72;100565.08;110130;1279;22136;-59
2023/08/17 03:27:13;;;;;;;6.50;1.40;;;;;;;19.29;94.06;100568.22;110157;1271;22185;-59
2023/08/17 03:29:44;;;;;;;6.90;1.70;;;;;;;19.33;93.75;100572.58;110152;1278;22167;-59
2023/08/17 03:32:15;;;;;;;6.70;1.40;;;;;;;19.38;94.09;100582.16;110112;1278;22200;-60
2023/08/17 03:34:46;;;;;;;7.10;1.80;;;;;;;19.40;94.16;100585.33;110166;1278;22232;-59
2023/08/17 03:37:17;;;;;;;6.80;1.90;;;;;;;19.43;94.30;100587.66;110084;1277;22163;-59
2023/08/17 03:39:48;;;;;;;6.30;1.70;;;;;;;19.47;94.10;100586.38;110096;1278;22176;-59
2023/08/17 03:42:19;;;;;;;5.60;1.70;;;;;;;19.50;93.99;100590.41;110136;1271;22338;-60
2023/08/17 03:44:50;;;;;;;5.90;1.50;;;;;;;19.53;93.68;100600.05;110100;1277;22320;-59
2023/08/17 03:47:21;;;;;;;9.70;1.90;;;;;;;19.55;93.79;100599.71;110116;1279;22258;-60
2023/08/17 03:49:52;;;;;;;5.60;1.50;;;;;;;19.58;93.81;100602.10;110102;1268;22318;-60
2023/08/17 03:52:23;;;;;;;6.90;1.60;;;;;;;19.59;93.48;100605.44;110110;1279;23122;-59
2023/08/17 03:54:54;;;;;;;6.70;1.70;;;;;;;19.61;93.51;100607.27;110079;1273;22215;-60
2023/08/17 03:57:26;;;;;;;7.10;1.80;;;;;;;19.62;93.69;100612.56;110068;1265;23042;-59
2023/08/17 03:59:57;;;;;;;8.20;1.60;;;;;;;19.63;93.93;100618.41;110103;1271;23019;-59
2023/08/17 04:02:28;;;;;;;5.40;1.80;;;;;;;19.65;93.92;100624.27;110111;1271;22339;-60
2023/08/17 04:04:58;;;;;;;8.30;2.10;;;;;;;19.66;94.16;100621.48;110088;1278;22216;-60
2023/08/17 04:07:29;;;;;;;5.80;1.70;;;;;;;19.66;94.25;100616.77;110179;1277;22215;-66
2023/08/17 04:10:01;;;;;;;5.20;1.60;;;;;;;19.66;94.20;100614.36;110156;1278;22189;-60
2023/08/17 04:12:32;;;;;;;5.30;1.30;;;;;;;19.66;94.18;100613.95;110136;1277;22643;-59
2023/08/17 04:15:03;;;;;;;5.20;1.60;;;;;;;19.66;94.18;100611.31;110081;1279;22211;-59
2023/08/17 04:17:34;;;;;;;5.70;1.60;;;;;;;19.66;94.14;100609.84;110059;1271;22171;-64
2023/08/17 04:20:06;;;;;;;10.40;1.80;;;;;;;19.66;94.28;100614.52;110093;1271;22955;-59
2023/08/17 04:22:38;;;;;;;6.20;1.60;;;;;;;19.65;94.37;100621.44;110108;1274;22583;-59
2023/08/17 04:25:09;;;;;;;5.90;1.60;;;;;;;19.63;94.34;100630.46;110092;1267;22227;-59
2023/08/17 04:27:40;;;;;;;6.40;1.40;;;;;;;19.62;94.31;100630.78;110088;1279;23465;-61
2023/08/17 04:30:13;;;;;;;7.30;2.20;;;;;;;19.62;94.39;100643.77;110092;1274;23532;-61
2023/08/17 04:32:44;;;;;;;6.60;1.40;;;;;;;19.59;94.50;100649.84;110098;1268;22386;-61
2023/08/17 04:35:15;;;;;;;7.60;2.30;;;;;;;19.59;94.66;100662.96;110096;1271;22397;-60
2023/08/17 04:37:46;;;;;;;6.40;1.70;;;;;;;19.57;94.64;100676.02;110097;1273;22361;-61
2023/08/17 04:40:18;;;;;;;7.40;1.90;;;;;;;19.54;94.72;100683.40;110077;1274;22130;-61
2023/08/17 04:42:50;;;;;;;6.70;1.80;;;;;;;19.56;95.11;100685.02;110083;1271;22432;-61
2023/08/17 04:45:21;;;;;;;6.00;2.10;;;;;;;19.57;95.17;100686.55;110093;1278;22265;-61
2023/08/17 04:47:52;;;;;;;6.50;1.60;;;;;;;19.58;95.39;100688.19;110023;1273;23117;-61
2023/08/17 04:50:23;;;;;;;6.30;2.20;;;;;;;19.59;95.57;100683.66;110058;1279;22277;-61
2023/08/17 04:52:53;;;;;;;7.00;1.60;;;;;;;19.61;95.59;100688.64;110104;1279;22787;-61
2023/08/17 04:55:24;;;;;;;6.40;1.90;;;;;;;19.62;95.58;100691.80;110094;1277;22196;-61
2023/08/17 04:57:55;;;;;;;7.70;1.80;;;;;;;19.63;95.55;100694.02;110141;1271;22353;-60
2023/08/17 05:00:28;;;;;;;6.80;1.80;;;;;;;19.63;95.60;100698.33;110071;1277;22662;-61
2023/08/17 05:02:58;;;;;;;12.50;2.70;;;;;;;19.64;95.88;100704.56;110084;1277;22363;-61
2023/08/17 05:05:29;;;;;;;8.80;2.00;;;;;;;19.62;95.72;100705.45;110118;1277;22120;-61
2023/08/17 05:08:01;;;;;;;7.60;2.10;;;;;;;19.61;95.94;100701.45;110089;1277;22240;-61
2023/08/17 05:10:32;;;;;;;6.90;1.50;;;;;;;19.59;95.96;100694.78;110139;1277;22345;-61
2023/08/17 05:13:03;;;;;;;13.70;2.30;;;;;;;19.57;96.12;100690.36;110150;1270;23081;-61
2023/08/17 05:15:34;;;;;;;7.60;1.70;;;;;;;19.54;96.26;100699.11;110179;1274;22216;-61
2023/08/17 05:18:05;;;;;;;10.90;2.90;;;;;;;19.54;96.17;100702.15;110134;1274;22258;-61
2023/08/17 05:20:36;;;;;;;13.90;2.60;;;;;;;19.58;96.45;100709.73;110085;1274;22378;-60
2023/08/17 05:23:07;;;;;;;9.70;3.00;;;;;;;19.63;96.59;100703.34;110116;1278;22255;-61
2023/08/17 05:25:38;;;;;;;9.70;2.40;;;;;;;19.66;96.79;100692.13;110150;1277;22142;-61
2023/08/17 05:28:09;;;;;;;8.60;2.10;;;;;;;19.69;96.71;100696.62;110131;1277;22178;-61
2023/08/17 05:30:40;;;;;;;7.50;2.20;;;;;;;19.74;96.87;100697.72;110133;1278;22257;-61
2023/08/17 05:33:11;;;;;;;9.40;2.90;;;;;;;19.78;97.08;100703.06;110150;1277;22391;-61
2023/08/17 05:35:42;;;;;;;13.60;3.40;;;;;;;19.83;96.98;100699.30;110201;1278;22226;-60
2023/08/17 05:38:13;;;;;;;10.40;2.70;;;;;;;19.88;97.50;100691.27;110101;1279;22251;-61
2023/08/17 05:40:44;;;;;;;10.90;3.10;;;;;;;19.93;97.36;100688.93;110093;1278;22328;-61
2023/08/17 05:43:14;;;;;;;6.50;2.30;;;;;;;20.01;97.39;100686.98;110113;1274;22189;-61
2023/08/17 05:45:45;;;;;;;7.90;1.70;;;;;;;20.07;97.02;100681.08;110177;1267;22230;-61
2023/08/17 05:48:16;;;;;;;7.00;1.90;;;;;;;20.15;97.06;100677.16;110174;1274;22957;-61
2023/08/17 05:50:47;;;;;;;8.90;1.90;;;;;;;20.21;96.61;100672.73;110058;1277;22224;-61
2023/08/17 05:53:18;;;;;;;9.30;2.10;;;;;;;20.26;96.25;100678.54;110037;1267;22348;-61
2023/08/17 05:55:49;;;;;;;6.80;1.90;;;;;;;20.32;95.92;100673.98;110009;1273;22413;-60
2023/08/17 05:58:20;;;;;;;9.20;1.70;;;;;;;20.38;95.95;100668.80;110007;1274;22418;-61
2023/08/17 06:00:51;;;;;;;7.20;1.80;;;;;;;20.41;95.04;100663.58;109988;1271;22355;-61
2023/08/17 06:03:22;;;;;;;7.00;1.40;;;;;;;20.47;94.41;100663.60;110042;1274;22185;-61
2023/08/17 06:05:56;;;;;;;6.30;1.50;;;;;;;20.51;93.99;100668.96;110083;1278;22306;-60
2023/08/17 06:08:27;;;;;;;9.00;1.70;;;;;;;20.56;94.18;100669.96;110121;1278;22201;-61
2023/08/17 06:10:58;;;;;;;8.90;1.50;;;;;;;20.60;93.35;100667.80;110185;1278;22317;-61
2023/08/17 06:13:29;;;;;;;7.50;1.50;;;;;;;20.64;93.35;100669.84;110128;1278;22287;-60
2023/08/17 06:16:00;;;;;;;6.70;1.40;;;;;;;20.68;93.71;100669.33;110201;1278;23078;-60
2023/08/17 06:18:31;;;;;;;5.60;1.40;;;;;;;20.71;93.05;100671.50;110168;1274;22185;-60
2023/08/17 06:21:02;;;;;;;9.50;2.20;;;;;;;20.76;93.12;100670.43;110159;1277;23162;-61
2023/08/17 06:23:33;;;;;;;6.10;1.50;;;;;;;20.80;92.56;100671.55;110120;1274;22388;-60
2023/08/17 06:26:04;;;;;;;4.50;1.20;;;;;;;20.84;92.00;100677.83;110177;1278;22298;-60
2023/08/17 06:28:35;;;;;;;6.00;1.60;;;;;;;20.87;91.87;100681.09;110167;1274;22627;-60
2023/08/17 06:31:06;;;;;;;6.60;1.70;;;;;;;20.91;91.97;100683.09;110153;1268;22264;-60
2023/08/17 06:33:37;;;;;;;10.10;1.70;;;;;;;20.93;92.26;100681.45;110096;1278;22145;-60
2023/08/17 06:36:08;;;;;;;8.90;1.90;;;;;;;20.95;91.60;100681.38;110155;1271;22195;-60
2023/08/17 06:38:39;;;;;;;7.30;1.60;;;;;;;20.98;91.32;100677.72;110094;1276;23171;-60
2023/08/17 06:41:10;;;;;;;8.00;1.50;;;;;;;21.01;91.15;100676.02;110083;1271;22156;-60
2023/08/17 06:43:41;;;;;;;6.60;1.40;;;;;;;21.04;91.46;100681.30;110080;1279;23270;-60
2023/08/17 06:46:12;;;;;;;5.20;1.40;;;;;;;21.05;91.20;100689.55;110064;1278;22216;-60
2023/08/17 06:48:43;;;;;;;5.80;1.40;;;;;;;21.07;91.35;100692.67;110109;1274;22349;-60
2023/08/17 06:51:14;;;;;;;7.00;1.80;;;;;;;21.09;91.75;100695.92;110068;1278;22148;-62
2023/08/17 06:53:45;;;;;;;8.70;1.50;;;;;;;21.11;91.09;100692.75;110067;1278;22291;-60
2023/08/17 06:56:16;;;;;;;7.40;1.50;;;;;;;21.14;90.62;100687.54;110112;1271;23238;-60
2023/08/17 06:58:47;;;;;;;6.20;1.40;;;;;;;21.17;89.98;100687.48;110084;1278;22212;-60
2023/08/17 07:01:18;;;;;;;7.70;1.40;;;;;;;21.22;89.72;100683.89;110076;1273;23007;-60
2023/08/17 07:03:50;;;;;;;5.90;1.40;;;;;;;21.27;89.68;100688.29;110018;1262;23604;-60
2023/08/17 07:06:21;;;;;;;8.10;1.30;;;;;;;21.32;88.82;100689.91;110040;1271;22139;-60
2023/08/17 07:08:52;;;;;;;6.80;1.40;;;;;;;21.34;87.95;100684.09;110078;1271;22222;-60
2023/08/17 07:11:23;;;;;;;6.00;1.20;;;;;;;21.39;87.81;100687.88;110066;1279;22364;-60
2023/08/17 07:13:55;;;;;;;8.40;1.50;;;;;;;21.45;87.43;100693.70;110089;1271;22414;-60
2023/08/17 07:16:26;;;;;;;5.80;1.10;;;;;;;21.50;86.78;100699.03;110108;1279;22178;-60
2023/08/17 07:18:57;;;;;;;6.40;1.20;;;;;;;21.55;86.91;100700.48;110078;1278;22182;-60
2023/08/17 07:21:28;;;;;;;6.90;1.30;;;;;;;21.60;87.18;100696.84;110106;1274;22190;-60
2023/08/17 07:23:59;;;;;;;5.70;1.00;;;;;;;21.64;87.18;100696.34;110165;1277;22177;-60
2023/08/17 07:26:30;;;;;;;4.10;1.30;;;;;;;21.69;86.77;100697.39;110154;1278;22206;-60
2023/08/17 07:29:01;;;;;;;9.20;2.10;;;;;;;21.73;86.69;100701.44;110163;1276;22850;-60
2023/08/17 07:31:33;;;;;;;7.50;1.30;;;;;;;21.75;85.94;100701.92;110135;1273;22120;-59
2023/08/17 07:34:04;;;;;;;6.40;1.70;;;;;;;21.76;85.99;100708.98;110188;1277;22287;-61
2023/08/17 07:36:35;;;;;;;6.80;1.20;;;;;;;21.77;85.09;100711.80;110151;1278;22230;-60
2023/08/17 07:39:07;;;;;;;6.10;1.30;;;;;;;21.75;84.05;100715.67;110169;1276;22182;-63
2023/08/17 07:41:38;;;;;;;8.30;1.40;;;;;;;21.74;84.31;100713.66;110074;1266;22148;-64
2023/08/17 07:44:09;;;;;;;6.50;1.50;;;;;;;21.79;84.15;100713.41;110041;1271;23192;-62
2023/08/17 07:46:41;;;;;;;4.80;1.20;;;;;;;21.83;83.65;100713.69;110009;1276;23058;-63
2023/08/17 07:49:12;;;;;;;5.00;0.90;;;;;;;21.86;83.53;100710.05;110150;1274;22298;-65
2023/08/17 07:51:43;;;;;;;6.30;1.40;;;;;;;21.93;83.43;100707.59;110013;1273;22156;-63
2023/08/17 07:54:14;;;;;;;3.90;1.10;;;;;;;22.01;83.67;100706.04;110105;1270;23105;-63
2023/08/17 07:56:44;;;;;;;6.00;1.10;;;;;;;22.06;82.78;100699.01;110032;1274;22315;-61
2023/08/17 07:59:15;;;;;;;5.70;1.40;;;;;;;22.06;82.00;100692.79;110130;1278;22204;-63
2023/08/17 08:01:46;;;;;;;4.90;1.20;;;;;;;22.07;82.12;100690.19;110124;1278;22910;-61
2023/08/17 08:04:18;;;;;;;11.90;1.50;;;;;;;22.11;82.17;100682.46;110144;1278;22276;-60
2023/08/17 08:06:49;;;;;;;8.70;1.30;;;;;;;22.13;82.12;100677.35;110112;1274;22334;-62
2023/08/17 08:09:21;;;;;;;7.10;1.20;;;;;;;22.19;82.17;100683.34;110124;1270;22855;-60
2023/08/17 08:11:52;;;;;;;5.30;0.90;;;;;;;22.27;82.36;100691.33;110110;1271;22219;-61
2023/08/17 08:14:23;;;;;;;3.90;1.30;;;;;;;22.35;81.88;100691.52;110141;1278;22871;-61
2023/08/17 08:16:53;;;;;;;5.80;1.50;;;;;;;22.39;81.57;100692.48;110178;1278;22193;-61
2023/08/17 08:19:24;;;;;;;3.30;1.00;;;;;;;22.43;81.93;100686.61;110152;1277;22196;-62
2023/08/17 08:21:55;;;;;;;7.60;1.40;;;;;;;22.49;81.56;100684.05;110176;1274;22445;-61
2023/08/17 08:24:31;;;;;;;6.10;1.20;;;;;;;22.55;81.19;100684.79;110125;1278;22210;-61
2023/08/17 08:27:02;;;;;;;4.30;1.20;;;;;;;22.62;80.79;100685.08;110149;1274;22440;-61
2023/08/17 08:29:33;;;;;;;5.60;1.30;;;;;;;22.68;80.69;100684.27;110145;1278;23007;-62
2023/08/17 08:32:04;;;;;;;3.90;1.00;;;;;;;22.77;81.01;100690.92;110146;1270;22328;-62
2023/08/17 08:34:35;;;;;;;6.90;1.20;;;;;;;22.87;80.86;100687.70;110133;1278;22201;-63
2023/08/17 08:37:06;;;;;;;7.40;1.00;;;;;;;22.95;80.52;100693.13;110045;1278;22359;-61
2023/08/17 08:39:57;;;;;;;5.30;1.30;;;;;;;22.99;79.89;100694.23;110028;1276;22709;-61
2023/08/17 08:42:28;;;;;;;9.60;1.60;;;;;;;23.05;79.94;100694.44;110046;1273;22248;-62
2023/08/17 08:44:59;;;;;;;9.60;1.20;;;;;;;23.10;79.80;100695.14;110094;1272;22308;-62
2023/08/17 08:47:35;;;;;;;5.30;1.60;;;;;;;23.13;79.52;100693.08;110075;1278;22306;-63
2023/08/17 08:50:07;;;;;;;4.70;1.40;;;;;;;23.14;79.04;100693.66;110092;1271;22368;-62
2023/08/17 08:52:43;;;;;;;5.50;1.30;;;;;;;23.11;78.67;100699.58;110168;1264;22161;-62
2023/08/17 08:55:19;;;;;;;7.30;1.30;;;;;;;23.09;78.65;100706.98;110072;1278;22268;-62
2023/08/17 08:57:53;;;;;;;3.60;1.20;;;;;;;23.12;78.96;100705.18;110131;1278;22202;-62
2023/08/17 09:00:25;;;;;;;5.50;1.30;;;;;;;23.15;78.70;100697.20;110134;1276;22152;-61
2023/08/17 09:02:57;;;;;;;5.40;1.10;;;;;;;23.18;78.50;100693.58;110075;1274;22393;-61
2023/08/17 09:05:28;;;;;;;6.30;1.30;;;;;;;23.21;78.86;100695.33;110038;1274;22219;-62
2023/08/17 09:08:01;;;;;;;5.90;1.20;;;;;;;23.27;78.59;100696.88;110022;1274;22189;-61
2023/08/17 09:10:32;;;;;;;5.60;1.40;;;;;;;23.34;78.18;100697.41;110031;1271;22825;-60
2023/08/17 09:13:03;;;;;;;4.20;1.40;;;;;;;23.38;77.52;100691.64;110004;1273;22183;-61
2023/08/17 09:15:35;;;;;;;4.50;1.20;;;;;;;23.45;77.32;100691.73;110068;1270;22327;-61
2023/08/17 09:18:08;;;;;;;8.20;1.60;;;;;;;23.53;78.31;100687.47;110057;1270;22449;-61
2023/08/17 09:20:44;;;;;;;5.10;1.40;;;;;;;23.63;78.88;100687.77;110033;1278;22214;-60
2023/08/17 09:23:19;;;;;;;6.30;1.90;;;;;;;23.75;78.46;100684.80;110093;1273;22305;-62
2023/08/17 09:25:51;;;;;;;5.50;1.30;;;;;;;23.82;77.55;100684.23;110022;1276;22281;-61
2023/08/17 09:28:22;;;;;;;8.10;1.40;;;;;;;23.87;77.38;100680.31;110007;1271;22263;-62
2023/08/17 09:30:55;;;;;;;5.30;1.30;;;;;;;23.96;77.66;100681.12;109992;1273;22342;-62
2023/08/17 09:33:27;;;;;;;5.10;1.40;;;;;;;24.08;77.52;100681.86;109978;1272;22822;-62
2023/08/17 09:35:59;;;;;;;3.50;1.00;;;;;;;24.18;77.15;100680.69;110044;1276;23130;-63
2023/08/17 09:38:30;;;;;;;8.20;1.40;;;;;;;24.27;77.17;100677.72;110069;1276;22211;-63
2023/08/17 09:41:01;;;;;;;4.80;1.30;;;;;;;24.36;76.97;100678.48;110036;1271;23158;-62
2023/08/17 09:43:34;;;;;;;10.70;1.50;;;;;;;24.43;76.46;100678.66;110040;1272;22412;-63
2023/08/17 09:46:07;;;;;;;6.20;1.50;;;;;;;24.48;76.28;100682.66;110030;1274;22892;-63
2023/08/17 09:48:38;;;;;;;6.30;1.70;;;;;;;24.54;76.02;100680.39;110039;1270;22350;-63
2023/08/17 09:51:10;;;;;;;5.70;1.10;;;;;;;24.55;75.38;100677.63;110020;1272;22375;-63
2023/08/17 09:53:41;;;;;;;4.70;1.30;;;;;;;24.55;74.85;100670.55;110034;1273;22935;-63
2023/08/17 09:56:13;;;;;;;5.30;1.40;;;;;;;24.58;74.70;100671.82;109982;1272;22352;-62
2023/08/17 09:58:45;;;;;;;7.20;1.40;;;;;;;24.60;74.45;100666.86;110060;1278;23009;-62
2023/08/17 10:01:16;;;;;;;5.50;1.50;;;;;;;24.61;73.74;100665.70;110095;1277;22157;-62
2023/08/17 10:03:49;;;;;;;6.40;1.70;;;;;;;24.59;73.69;100662.53;110096;1277;22137;-62
2023/08/17 10:06:28;;;;;;;10.20;1.50;;;;;;;24.62;73.67;100661.21;110111;1278;22188;-63
2023/08/17 10:09:01;;;;;;;4.60;1.40;;;;;;;24.64;73.76;100656.56;110181;1270;22847;-62
2023/08/17 10:11:37;;;;;;;6.80;1.90;;;;;;;24.70;74.43;100656.59;110185;1270;22893;-62
2023/08/17 10:14:14;;;;;;;3.70;1.30;;;;;;;24.80;74.39;100655.75;110174;1270;22183;-62
2023/08/17 10:16:49;;;;;;;6.60;1.70;;;;;;;24.92;74.40;100649.63;110205;1277;22198;-63
2023/08/17 10:19:31;;;;;;;8.20;1.40;;;;;;;24.98;73.72;100647.55;110087;1270;22281;-63
2023/08/17 10:22:09;;;;;;;8.70;1.80;;;;;;;25.01;73.32;100649.37;110179;1277;22328;-62
2023/08/17 10:24:41;;;;;;;5.30;1.30;;;;;;;25.05;73.71;100644.13;110201;1277;22275;-62
2023/08/17 10:27:12;;;;;;;8.00;1.70;;;;;;;25.14;73.93;100642.10;110196;1270;22173;-62
2023/08/17 10:29:44;;;;;;;6.20;1.30;;;;;;;25.26;74.03;100641.64;110184;1278;22129;-62
2023/08/17 10:32:16;;;;;;;5.20;1.30;;;;;;;25.34;73.08;100638.70;110203;1278;23261;-62
2023/08/17 10:34:47;;;;;;;6.60;1.60;;;;;;;25.39;72.57;100642.05;110180;1277;22160;-62
2023/08/17 10:37:20;;;;;;;5.60;1.50;;;;;;;25.45;72.02;100644.62;110094;1274;22196;-62
2023/08/17 10:39:51;;;;;;;6.40;1.50;;;;;;;25.47;70.38;100639.47;110138;1277;22190;-62
2023/08/17 10:42:35;;;;;;;4.70;1.40;;;;;;;25.45;70.36;100634.03;110153;1277;22129;-63
2023/08/17 10:45:28;;;;;;;6.30;1.40;;;;;;;25.49;70.85;100629.71;110211;1277;22928;-62
2023/08/17 10:48:30;;;;;;;3.60;1.30;;;;;;;25.56;70.79;100628.02;110186;1270;22367;-63
2023/08/17 10:51:06;;;;;;;6.20;1.40;;;;;;;25.63;69.99;100630.15;110203;1278;22315;-62
2023/08/17 10:53:43;;;;;;;6.90;1.50;;;;;;;25.65;70.37;100630.63;110156;1278;22605;-62
2023/08/17 10:56:15;;;;;;;4.40;1.40;;;;;;;25.69;69.54;100630.52;110214;1277;23018;-63
2023/08/17 10:58:46;;;;;;;4.90;1.40;;;;;;;25.70;69.64;100626.49;110212;1277;22226;-62
2023/08/17 11:01:41;;;;;;;6.00;1.50;;;;;;;25.73;69.22;100623.67;110055;1277;23086;-63
2023/08/17 11:04:16;;;;;;;4.20;1.30;;;;;;;25.77;69.76;100620.20;110155;1267;22148;-62
2023/08/17 11:07:09;;;;;;;4.40;1.20;;;;;;;25.85;69.36;100619.25;110196;1277;22203;-63
2023/08/17 11:09:42;;;;;;;4.60;1.40;;;;;;;25.93;67.85;100619.55;110346;1275;22242;-62
2023/08/17 11:12:30;;;;;;;5.60;1.20;;;;;;;25.97;67.92;100614.83;110358;1260;22167;-62
2023/08/17 11:15:02;;;;;;;4.70;1.30;;;;;;;26.03;67.70;100614.99;110357;1276;22865;-61
2023/08/17 11:17:32;;;;;;;6.80;1.30;;;;;;;26.08;67.89;100614.79;110425;1275;22218;-61
2023/08/17 11:20:04;;;;;;;7.90;1.70;;;;;;;26.17;67.97;100615.23;110341;1273;22186;-61
2023/08/17 11:22:35;;;;;;;7.10;1.50;;;;;;;26.23;66.79;100609.89;106189;1264;5415315;-63
2023/08/17 11:25:08;;;;;;;3.90;1.30;;;;;;;26.24;65.48;100611.80;110400;1273;22139;-62
2023/08/17 11:27:39;;;;;;;6.90;1.20;;;;;;;26.24;65.47;100608.27;110374;1275;22192;-62
2023/08/17 11:30:13;;;;;;;4.60;1.20;;;;;;;26.28;64.71;100610.69;110423;1271;22308;-60
2023/08/17 11:32:44;;;;;;;5.70;1.40;;;;;;;26.29;64.98;100608.59;110381;1276;22174;-61
2023/08/17 11:35:15;;;;;;;5.80;1.40;;;;;;;26.36;64.68;100605.34;110353;1273;22238;-62
2023/08/17 11:37:46;;;;;;;5.80;1.20;;;;;;;26.46;64.59;100607.61;110368;1275;22220;-61
2023/08/17 11:40:17;;;;;;;7.40;1.70;;;;;;;26.54;64.38;100603.86;110382;1275;22270;-61